createdAt,value
2022-10-04T07:29:01.406Z,98722.00
2022-10-04T07:34:32.850Z,98737.00
2022-10-04T07:49:17.743Z,98741.00
2022-10-04T07:54:58.875Z,98750.00
2022-10-04T08:00:28.854Z,98744.00
2022-10-04T08:05:42.860Z,98750.00
2022-10-04T08:11:19.826Z,98755.00
2022-10-04T08:16:54.632Z,98767.00
2022-10-04T08:22:18.411Z,98773.00
2022-10-04T08:27:24.132Z,98763.00
2022-10-04T08:33:02.172Z,98769.00
2022-10-04T08:38:23.298Z,98772.00
2022-10-04T08:44:06.883Z,98776.00
2022-10-04T08:49:52.420Z,98770.00
2022-10-04T08:55:21.045Z,98768.00
2022-10-04T09:00:46.992Z,98769.00
2022-10-04T09:05:53.598Z,98777.00
2022-10-04T09:11:14.911Z,98770.00
2022-10-04T09:16:45.462Z,98761.00
2022-10-04T09:21:57.205Z,98768.00
2022-10-04T09:27:54.161Z,98768.00
2022-10-04T09:33:09.659Z,98773.00
2022-10-04T09:38:36.039Z,98784.00
2022-10-04T09:43:57.461Z,98779.00
2022-10-04T09:49:22.381Z,98778.00
2022-10-04T09:54:56.954Z,98768.00
2022-10-04T10:00:25.186Z,98758.00
2022-10-04T10:05:49.631Z,98758.00
2022-10-04T10:11:19.484Z,98774.00
2022-10-04T10:16:31.210Z,98782.00
2022-10-04T10:21:58.275Z,98781.00
2022-10-04T10:27:31.434Z,98787.00
2022-10-04T10:32:40.230Z,98795.00
2022-10-04T10:38:10.548Z,98782.00
2022-10-04T10:43:37.681Z,98801.00
2022-10-04T10:48:58.989Z,98787.00
2022-10-04T10:54:13.761Z,98793.00
2022-10-04T10:59:38.031Z,98784.00
2022-10-04T11:05:11.664Z,98782.00
2022-10-04T11:10:21.090Z,98783.00
2022-10-04T11:15:52.160Z,98787.00
2022-10-04T11:21:09.771Z,98778.00
2022-10-04T11:26:15.735Z,98777.00
2022-10-04T11:31:18.620Z,98772.00
2022-10-04T11:36:30.033Z,98764.00
2022-10-04T11:42:04.498Z,98760.00
2022-10-04T11:47:21.781Z,98751.00
2022-10-04T11:53:03.483Z,98751.00
2022-10-04T11:58:35.515Z,98753.00
2022-10-04T12:03:50.459Z,98748.00
2022-10-04T12:09:13.533Z,98740.00
2022-10-04T12:14:38.950Z,98740.00
2022-10-04T12:20:19.177Z,98738.00
2022-10-04T12:25:59.490Z,98738.00
2022-10-04T12:31:31.724Z,98733.00
2022-10-04T12:37:10.728Z,98730.00
2022-10-04T12:42:44.428Z,98731.00
2022-10-04T12:47:55.809Z,98738.00
2022-10-04T12:53:18.468Z,98731.00
2022-10-04T12:58:39.977Z,98726.00
2022-10-04T13:03:42.664Z,98708.00
2022-10-04T13:09:20.248Z,98710.00
2022-10-04T13:14:47.402Z,98706.00
2022-10-04T13:20:13.352Z,98720.00
2022-10-04T13:25:22.143Z,98719.00
2022-10-04T13:30:29.371Z,98718.00
2022-10-04T13:35:37.766Z,98723.00
2022-10-04T13:41:11.541Z,98711.00
2022-10-04T13:46:37.691Z,98707.00
2022-10-04T13:52:18.828Z,98717.00
2022-10-04T13:57:49.977Z,98713.00
2022-10-04T14:03:04.887Z,98703.00
2022-10-04T14:08:49.540Z,98708.00
2022-10-04T14:14:33.368Z,98699.00
2022-10-04T14:20:02.288Z,98704.00
2022-10-04T14:25:35.884Z,98693.00
2022-10-04T14:31:10.920Z,98696.00
2022-10-04T14:36:28.711Z,98692.00
2022-10-04T14:41:53.068Z,98688.00
2022-10-04T14:47:34.696Z,98685.00
2022-10-04T14:53:45.844Z,98681.00
2022-10-04T14:58:54.689Z,98674.00
2022-10-04T15:04:14.142Z,98668.00
2022-10-04T15:09:32.073Z,98664.00
2022-10-04T15:15:12.305Z,98649.00
2022-10-04T15:20:22.489Z,98651.00
2022-10-04T15:25:53.585Z,98634.00
2022-10-04T15:31:20.924Z,98632.00
2022-10-04T15:36:45.710Z,98626.00
2022-10-04T15:42:15.043Z,98620.00
2022-10-04T15:47:54.924Z,98622.00
2022-10-04T15:53:24.304Z,98634.00
2022-10-04T15:58:53.255Z,98622.00
2022-10-04T16:04:20.012Z,98609.00
2022-10-04T16:09:50.115Z,98611.00
2022-10-04T16:14:59.034Z,98606.00
2022-10-04T16:20:28.202Z,98613.00
2022-10-04T16:25:39.033Z,98607.00
2022-10-04T16:30:49.655Z,98632.00
2022-10-04T16:36:17.265Z,98640.00
2022-10-04T16:41:56.696Z,98645.00
2022-10-04T16:47:11.162Z,98643.00
2022-10-04T16:52:38.649Z,98647.00
2022-10-04T16:57:43.510Z,98645.00
2022-10-04T17:02:49.421Z,98635.00
2022-10-04T17:08:04.942Z,98620.00
2022-10-04T17:13:21.168Z,98626.00
2022-10-04T17:19:16.159Z,98638.00
2022-10-04T17:24:44.713Z,98641.00
2022-10-04T17:29:48.371Z,98637.00
2022-10-04T17:35:13.522Z,98641.00
2022-10-04T17:40:38.641Z,98655.00
2022-10-04T17:45:44.388Z,98650.00
2022-10-04T17:51:30.627Z,98653.00
2022-10-04T17:56:45.741Z,98677.00
2022-10-04T18:02:09.748Z,98674.00
2022-10-04T18:07:24.503Z,98666.00
2022-10-04T18:12:46.638Z,98665.00
2022-10-04T18:17:50.733Z,98661.00
2022-10-04T18:23:01.515Z,98656.00
2022-10-04T18:28:10.377Z,98651.00
2022-10-04T18:33:18.900Z,98647.00
2022-10-04T18:38:28.560Z,98634.00
2022-10-04T18:43:52.201Z,98639.00
2022-10-04T18:49:08.878Z,98647.00
2022-10-04T18:54:46.521Z,98641.00
2022-10-04T19:00:30.960Z,98649.00
2022-10-04T19:05:51.600Z,98637.00
2022-10-04T19:11:19.437Z,98648.00
2022-10-04T19:16:45.508Z,98647.00
2022-10-04T19:21:55.070Z,98634.00
2022-10-04T19:27:09.481Z,98636.00
2022-10-04T19:32:23.026Z,98649.00
2022-10-04T19:37:27.884Z,98655.00
2022-10-04T19:42:52.312Z,98663.00
2022-10-04T19:47:58.334Z,98671.00
2022-10-04T19:53:07.482Z,98676.00
2022-10-04T19:58:30.759Z,98674.00
2022-10-04T20:03:34.032Z,98687.00
2022-10-04T20:09:17.686Z,98691.00
2022-10-04T20:14:23.478Z,98686.00
2022-10-04T20:19:29.061Z,98684.00
2022-10-04T20:24:37.724Z,98682.00
2022-10-04T20:29:57.626Z,98693.00
2022-10-04T20:35:01.975Z,98677.00
2022-10-04T20:40:06.242Z,98691.00
2022-10-04T20:45:12.111Z,98687.00
2022-10-04T20:50:38.991Z,98693.00
2022-10-04T20:55:44.318Z,98711.00
2022-10-04T21:00:57.896Z,98699.00
2022-10-04T21:06:04.948Z,98709.00
2022-10-04T21:11:18.506Z,98699.00
2022-10-04T21:16:35.381Z,98695.00
2022-10-04T21:21:51.306Z,98709.00
2022-10-04T21:26:57.728Z,98698.00
2022-10-04T21:32:01.330Z,98709.00
2022-10-04T21:37:04.070Z,98700.00
2022-10-04T21:42:06.861Z,98712.00
2022-10-04T21:47:10.294Z,98699.00
2022-10-04T21:52:13.073Z,98689.00
2022-10-04T21:57:15.936Z,98697.00
2022-10-04T22:02:18.695Z,98695.00
2022-10-04T22:07:21.728Z,98689.00
2022-10-04T22:12:24.451Z,98695.00
2022-10-04T22:17:27.169Z,98697.00
2022-10-04T22:22:32.677Z,98695.00
2022-10-04T22:27:37.071Z,98685.00
2022-10-04T22:32:39.841Z,98660.00
2022-10-04T22:37:43.588Z,98643.00
2022-10-04T22:42:50.518Z,98637.00
2022-10-04T22:47:54.997Z,98637.00
2022-10-04T22:52:58.851Z,98626.00
2022-10-04T22:58:02.928Z,98622.00
2022-10-04T23:03:25.373Z,98614.00
2022-10-04T23:08:29.400Z,98602.00
2022-10-04T23:13:32.143Z,98591.00
2022-10-04T23:18:34.918Z,98600.00
2022-10-04T23:23:37.705Z,98583.00
2022-10-04T23:28:40.519Z,98574.00
2022-10-04T23:33:43.314Z,98567.00
2022-10-04T23:38:51.111Z,98570.00
2022-10-04T23:43:54.254Z,98564.00
2022-10-04T23:48:56.940Z,98562.00
2022-10-04T23:53:59.708Z,98560.00
2022-10-04T23:59:02.530Z,98543.00
